sensor_id;sensor_type;location;lat;lon;timestamp;P1;durP1;ratioP1;P2;durP2;ratioP2
77152;SDS011;66124;51.146;17.072;2022-12-17T00:00:35;62.70;;;21.70;;
77152;SDS011;66124;51.146;17.072;2022-12-17T00:03:20;72.70;;;26.90;;
77152;SDS011;66124;51.146;17.072;2022-12-17T00:05:52;69.00;;;22.30;;
77152;SDS011;66124;51.146;17.072;2022-12-17T00:08:21;50.00;;;20.00;;
77152;SDS011;66124;51.146;17.072;2022-12-17T00:10:50;78.70;;;30.00;;
77152;SDS011;66124;51.146;17.072;2022-12-17T00:13:21;70.20;;;26.80;;
77152;SDS011;66124;51.146;17.072;2022-12-17T00:15:51;80.30;;;27.10;;
77152;SDS011;66124;51.146;17.072;2022-12-17T00:18:20;74.20;;;28.50;;
77152;SDS011;66124;51.146;17.072;2022-12-17T00:20:53;76.30;;;30.10;;
77152;SDS011;66124;51.146;17.072;2022-12-17T00:23:24;77.20;;;27.70;;
77152;SDS011;66124;51.146;17.072;2022-12-17T00:25:54;80.20;;;27.50;;
77152;SDS011;66124;51.146;17.072;2022-12-17T00:28:23;67.80;;;28.30;;
77152;SDS011;66124;51.146;17.072;2022-12-17T00:30:53;75.40;;;28.40;;
77152;SDS011;66124;51.146;17.072;2022-12-17T00:33:22;83.80;;;30.80;;
77152;SDS011;66124;51.146;17.072;2022-12-17T00:35:52;72.90;;;26.20;;
77152;SDS011;66124;51.146;17.072;2022-12-17T00:38:22;76.00;;;29.10;;
77152;SDS011;66124;51.146;17.072;2022-12-17T00:40:51;76.10;;;27.40;;
77152;SDS011;66124;51.146;17.072;2022-12-17T00:43:21;59.70;;;22.90;;
77152;SDS011;66124;51.146;17.072;2022-12-17T00:45:50;64.30;;;25.20;;
77152;SDS011;66124;51.146;17.072;2022-12-17T00:55:58;70.50;;;25.20;;
77152;SDS011;66124;51.146;17.072;2022-12-17T00:58:28;70.90;;;26.90;;
77152;SDS011;66124;51.146;17.072;2022-12-17T01:00:58;75.90;;;26.50;;
77152;SDS011;66124;51.146;17.072;2022-12-17T01:03:27;66.40;;;25.00;;
77152;SDS011;66124;51.146;17.072;2022-12-17T01:05:58;66.10;;;24.50;;
77152;SDS011;66124;51.146;17.072;2022-12-17T01:08:29;76.30;;;30.10;;
77152;SDS011;66124;51.146;17.072;2022-12-17T01:11:00;80.10;;;29.60;;
77152;SDS011;66124;51.146;17.072;2022-12-17T01:13:30;80.30;;;29.60;;
77152;SDS011;66124;51.146;17.072;2022-12-17T01:16:02;72.70;;;29.10;;
77152;SDS011;66124;51.146;17.072;2022-12-17T01:18:33;73.20;;;28.40;;
77152;SDS011;66124;51.146;17.072;2022-12-17T01:21:02;76.00;;;27.40;;
77152;SDS011;66124;51.146;17.072;2022-12-17T01:23:32;75.80;;;29.40;;
77152;SDS011;66124;51.146;17.072;2022-12-17T01:26:01;74.60;;;28.00;;
77152;SDS011;66124;51.146;17.072;2022-12-17T01:28:31;73.50;;;28.70;;
77152;SDS011;66124;51.146;17.072;2022-12-17T01:31:00;74.50;;;25.50;;
77152;SDS011;66124;51.146;17.072;2022-12-17T01:33:29;60.30;;;22.20;;
77152;SDS011;66124;51.146;17.072;2022-12-17T01:35:58;47.20;;;15.10;;
77152;SDS011;66124;51.146;17.072;2022-12-17T01:38:28;57.80;;;21.80;;
77152;SDS011;66124;51.146;17.072;2022-12-17T01:40:57;72.80;;;28.90;;
77152;SDS011;66124;51.146;17.072;2022-12-17T01:43:31;68.70;;;22.90;;
77152;SDS011;66124;51.146;17.072;2022-12-17T01:46:03;49.70;;;20.10;;
77152;SDS011;66124;51.146;17.072;2022-12-17T01:48:33;76.20;;;27.50;;
77152;SDS011;66124;51.146;17.072;2022-12-17T01:51:06;71.70;;;27.00;;
77152;SDS011;66124;51.146;17.072;2022-12-17T01:53:37;75.10;;;27.10;;
77152;SDS011;66124;51.146;17.072;2022-12-17T01:56:11;68.30;;;28.40;;
77152;SDS011;66124;51.146;17.072;2022-12-17T01:58:42;76.70;;;28.00;;
77152;SDS011;66124;51.146;17.072;2022-12-17T02:01:12;79.80;;;29.10;;
77152;SDS011;66124;51.146;17.072;2022-12-17T02:03:41;75.80;;;27.10;;
77152;SDS011;66124;51.146;17.072;2022-12-17T02:15:43;70.10;;;26.40;;
77152;SDS011;66124;51.146;17.072;2022-12-17T02:18:19;55.80;;;20.10;;
77152;SDS011;66124;51.146;17.072;2022-12-17T02:20:52;73.50;;;27.20;;
77152;SDS011;66124;51.146;17.072;2022-12-17T02:23:28;87.60;;;28.60;;
77152;SDS011;66124;51.146;17.072;2022-12-17T02:26:04;65.30;;;26.20;;
77152;SDS011;66124;51.146;17.072;2022-12-17T02:28:39;88.20;;;31.80;;
77152;SDS011;66124;51.146;17.072;2022-12-17T02:31:12;84.90;;;30.30;;
77152;SDS011;66124;51.146;17.072;2022-12-17T02:33:43;85.90;;;30.10;;
77152;SDS011;66124;51.146;17.072;2022-12-17T02:36:13;73.40;;;26.00;;
77152;SDS011;66124;51.146;17.072;2022-12-17T02:38:42;88.10;;;29.30;;
77152;SDS011;66124;51.146;17.072;2022-12-17T02:41:12;78.20;;;30.50;;
77152;SDS011;66124;51.146;17.072;2022-12-17T02:43:44;86.00;;;31.90;;
77152;SDS011;66124;51.146;17.072;2022-12-17T02:46:14;87.70;;;29.00;;
77152;SDS011;66124;51.146;17.072;2022-12-17T02:48:44;73.50;;;24.40;;
77152;SDS011;66124;51.146;17.072;2022-12-17T02:51:13;93.60;;;31.40;;
77152;SDS011;66124;51.146;17.072;2022-12-17T02:53:45;74.40;;;24.70;;
77152;SDS011;66124;51.146;17.072;2022-12-17T02:56:20;68.80;;;24.70;;
77152;SDS011;66124;51.146;17.072;2022-12-17T02:58:49;68.00;;;24.80;;
77152;SDS011;66124;51.146;17.072;2022-12-17T03:01:18;74.00;;;26.10;;
77152;SDS011;66124;51.146;17.072;2022-12-17T03:03:47;58.10;;;20.30;;
77152;SDS011;66124;51.146;17.072;2022-12-17T03:06:17;81.10;;;26.20;;
77152;SDS011;66124;51.146;17.072;2022-12-17T03:08:46;72.20;;;28.00;;
77152;SDS011;66124;51.146;17.072;2022-12-17T03:11:15;72.10;;;26.50;;
77152;SDS011;66124;51.146;17.072;2022-12-17T03:13:45;79.20;;;27.60;;
77152;SDS011;66124;51.146;17.072;2022-12-17T03:16:15;85.00;;;27.50;;
77152;SDS011;66124;51.146;17.072;2022-12-17T03:18:45;76.70;;;27.00;;
77152;SDS011;66124;51.146;17.072;2022-12-17T03:21:16;84.10;;;31.10;;
77152;SDS011;66124;51.146;17.072;2022-12-17T03:23:45;66.90;;;19.70;;
77152;SDS011;66124;51.146;17.072;2022-12-17T03:26:15;27.40;;;13.20;;
77152;SDS011;66124;51.146;17.072;2022-12-17T03:35:17;71.30;;;26.90;;
77152;SDS011;66124;51.146;17.072;2022-12-17T03:37:46;59.10;;;20.60;;
77152;SDS011;66124;51.146;17.072;2022-12-17T03:40:15;49.30;;;19.00;;
77152;SDS011;66124;51.146;17.072;2022-12-17T03:42:44;79.80;;;26.90;;
77152;SDS011;66124;51.146;17.072;2022-12-17T03:45:14;84.10;;;30.60;;
77152;SDS011;66124;51.146;17.072;2022-12-17T03:47:43;62.50;;;22.60;;
77152;SDS011;66124;51.146;17.072;2022-12-17T03:50:13;87.60;;;29.80;;
77152;SDS011;66124;51.146;17.072;2022-12-17T03:52:42;75.60;;;28.20;;
77152;SDS011;66124;51.146;17.072;2022-12-17T03:55:11;94.30;;;31.20;;
77152;SDS011;66124;51.146;17.072;2022-12-17T03:57:41;82.80;;;29.40;;
77152;SDS011;66124;51.146;17.072;2022-12-17T04:00:11;91.10;;;31.20;;
77152;SDS011;66124;51.146;17.072;2022-12-17T04:02:41;75.40;;;26.90;;
77152;SDS011;66124;51.146;17.072;2022-12-17T04:05:10;88.30;;;30.50;;
77152;SDS011;66124;51.146;17.072;2022-12-17T04:07:40;91.70;;;30.80;;
77152;SDS011;66124;51.146;17.072;2022-12-17T04:10:09;79.60;;;28.40;;
77152;SDS011;66124;51.146;17.072;2022-12-17T04:12:39;73.60;;;26.80;;
77152;SDS011;66124;51.146;17.072;2022-12-17T04:15:09;54.10;;;17.60;;
77152;SDS011;66124;51.146;17.072;2022-12-17T04:17:38;70.40;;;23.20;;
77152;SDS011;66124;51.146;17.072;2022-12-17T04:20:08;76.60;;;26.00;;
77152;SDS011;66124;51.146;17.072;2022-12-17T04:22:38;70.60;;;22.10;;
77152;SDS011;66124;51.146;17.072;2022-12-17T04:25:07;63.50;;;21.30;;
77152;SDS011;66124;51.146;17.072;2022-12-17T04:27:37;64.30;;;23.00;;
77152;SDS011;66124;51.146;17.072;2022-12-17T04:30:07;93.00;;;29.20;;
77152;SDS011;66124;51.146;17.072;2022-12-17T04:32:37;79.20;;;28.00;;
77152;SDS011;66124;51.146;17.072;2022-12-17T04:35:06;80.20;;;27.30;;
77152;SDS011;66124;51.146;17.072;2022-12-17T04:37:36;79.30;;;28.70;;
77152;SDS011;66124;51.146;17.072;2022-12-17T04:40:07;77.90;;;27.10;;
77152;SDS011;66124;51.146;17.072;2022-12-17T04:42:37;68.40;;;24.00;;
77152;SDS011;66124;51.146;17.072;2022-12-17T04:55:16;83.20;;;26.90;;
77152;SDS011;66124;51.146;17.072;2022-12-17T04:57:45;87.10;;;28.10;;
77152;SDS011;66124;51.146;17.072;2022-12-17T05:00:15;70.50;;;25.70;;
77152;SDS011;66124;51.146;17.072;2022-12-17T05:02:44;79.30;;;27.40;;
77152;SDS011;66124;51.146;17.072;2022-12-17T05:05:13;76.70;;;27.60;;
77152;SDS011;66124;51.146;17.072;2022-12-17T05:07:43;74.50;;;24.20;;
77152;SDS011;66124;51.146;17.072;2022-12-17T05:10:12;78.40;;;24.00;;
77152;SDS011;66124;51.146;17.072;2022-12-17T05:12:42;82.10;;;26.70;;
77152;SDS011;66124;51.146;17.072;2022-12-17T05:15:11;78.80;;;27.70;;
77152;SDS011;66124;51.146;17.072;2022-12-17T05:17:40;63.90;;;21.80;;
77152;SDS011;66124;51.146;17.072;2022-12-17T05:20:10;56.50;;;22.80;;
77152;SDS011;66124;51.146;17.072;2022-12-17T05:22:40;79.40;;;26.40;;
77152;SDS011;66124;51.146;17.072;2022-12-17T05:25:09;78.30;;;26.70;;
77152;SDS011;66124;51.146;17.072;2022-12-17T05:27:39;86.10;;;28.90;;
77152;SDS011;66124;51.146;17.072;2022-12-17T05:30:09;79.10;;;26.80;;
77152;SDS011;66124;51.146;17.072;2022-12-17T05:32:38;71.20;;;25.00;;
77152;SDS011;66124;51.146;17.072;2022-12-17T05:35:08;67.70;;;23.50;;
77152;SDS011;66124;51.146;17.072;2022-12-17T05:37:37;51.80;;;19.30;;
77152;SDS011;66124;51.146;17.072;2022-12-17T05:40:08;74.60;;;24.20;;
77152;SDS011;66124;51.146;17.072;2022-12-17T05:42:38;61.50;;;23.00;;
77152;SDS011;66124;51.146;17.072;2022-12-17T05:45:08;54.50;;;19.10;;
77152;SDS011;66124;51.146;17.072;2022-12-17T05:47:37;63.30;;;20.70;;
77152;SDS011;66124;51.146;17.072;2022-12-17T05:50:07;77.80;;;25.10;;
77152;SDS011;66124;51.146;17.072;2022-12-17T05:52:36;61.40;;;22.40;;
77152;SDS011;66124;51.146;17.072;2022-12-17T05:55:06;77.20;;;25.70;;
77152;SDS011;66124;51.146;17.072;2022-12-17T05:57:36;72.40;;;24.50;;
77152;SDS011;66124;51.146;17.072;2022-12-17T06:00:06;67.10;;;24.00;;
77152;SDS011;66124;51.146;17.072;2022-12-17T06:02:37;67.60;;;23.60;;
77152;SDS011;66124;51.146;17.072;2022-12-17T06:11:31;73.10;;;26.50;;
77152;SDS011;66124;51.146;17.072;2022-12-17T06:14:00;58.00;;;20.70;;
77152;SDS011;66124;51.146;17.072;2022-12-17T06:16:29;64.50;;;22.10;;
77152;SDS011;66124;51.146;17.072;2022-12-17T06:18:58;71.00;;;23.10;;
77152;SDS011;66124;51.146;17.072;2022-12-17T06:21:28;55.90;;;19.70;;
77152;SDS011;66124;51.146;17.072;2022-12-17T06:23:57;70.80;;;24.10;;
77152;SDS011;66124;51.146;17.072;2022-12-17T06:26:27;80.90;;;26.10;;
77152;SDS011;66124;51.146;17.072;2022-12-17T06:28:56;62.70;;;22.50;;
77152;SDS011;66124;51.146;17.072;2022-12-17T06:31:25;75.70;;;24.60;;
77152;SDS011;66124;51.146;17.072;2022-12-17T06:33:55;66.00;;;22.50;;
77152;SDS011;66124;51.146;17.072;2022-12-17T06:36:24;65.40;;;21.80;;
77152;SDS011;66124;51.146;17.072;2022-12-17T06:38:53;65.80;;;23.00;;
77152;SDS011;66124;51.146;17.072;2022-12-17T06:41:23;61.20;;;23.00;;
77152;SDS011;66124;51.146;17.072;2022-12-17T06:43:52;38.80;;;14.10;;
77152;SDS011;66124;51.146;17.072;2022-12-17T06:46:21;70.90;;;24.10;;
77152;SDS011;66124;51.146;17.072;2022-12-17T06:48:51;53.90;;;15.80;;
77152;SDS011;66124;51.146;17.072;2022-12-17T06:51:20;80.40;;;23.10;;
77152;SDS011;66124;51.146;17.072;2022-12-17T06:53:49;69.90;;;23.60;;
77152;SDS011;66124;51.146;17.072;2022-12-17T06:56:19;67.70;;;23.40;;
77152;SDS011;66124;51.146;17.072;2022-12-17T06:58:48;66.10;;;23.00;;
77152;SDS011;66124;51.146;17.072;2022-12-17T07:01:17;48.00;;;18.20;;
77152;SDS011;66124;51.146;17.072;2022-12-17T07:03:47;59.50;;;21.70;;
77152;SDS011;66124;51.146;17.072;2022-12-17T07:06:16;66.80;;;22.80;;
77152;SDS011;66124;51.146;17.072;2022-12-17T07:08:45;70.60;;;24.40;;
77152;SDS011;66124;51.146;17.072;2022-12-17T07:11:15;63.20;;;20.70;;
77152;SDS011;66124;51.146;17.072;2022-12-17T07:13:44;67.80;;;21.70;;
77152;SDS011;66124;51.146;17.072;2022-12-17T07:16:13;62.90;;;22.40;;
77152;SDS011;66124;51.146;17.072;2022-12-17T07:18:43;58.10;;;18.80;;
77152;SDS011;66124;51.146;17.072;2022-12-17T07:21:12;31.50;;;12.80;;
77152;SDS011;66124;51.146;17.072;2022-12-17T07:23:42;36.70;;;13.40;;
77152;SDS011;66124;51.146;17.072;2022-12-17T07:30:35;61.70;;;22.50;;
77152;SDS011;66124;51.146;17.072;2022-12-17T07:33:05;57.00;;;20.70;;
77152;SDS011;66124;51.146;17.072;2022-12-17T07:35:36;66.20;;;24.00;;
77152;SDS011;66124;51.146;17.072;2022-12-17T07:38:05;71.90;;;23.00;;
77152;SDS011;66124;51.146;17.072;2022-12-17T07:40:35;60.60;;;23.40;;
77152;SDS011;66124;51.146;17.072;2022-12-17T07:43:10;68.70;;;24.50;;
77152;SDS011;66124;51.146;17.072;2022-12-17T07:45:40;65.60;;;22.60;;
77152;SDS011;66124;51.146;17.072;2022-12-17T07:48:09;55.10;;;18.80;;
77152;SDS011;66124;51.146;17.072;2022-12-17T07:50:38;66.90;;;22.90;;
77152;SDS011;66124;51.146;17.072;2022-12-17T07:53:08;69.90;;;24.10;;
77152;SDS011;66124;51.146;17.072;2022-12-17T07:55:37;63.30;;;20.40;;
77152;SDS011;66124;51.146;17.072;2022-12-17T07:58:08;70.40;;;22.90;;
77152;SDS011;66124;51.146;17.072;2022-12-17T08:00:38;69.80;;;21.90;;
77152;SDS011;66124;51.146;17.072;2022-12-17T08:03:07;56.00;;;21.00;;
77152;SDS011;66124;51.146;17.072;2022-12-17T08:05:37;47.00;;;17.50;;
77152;SDS011;66124;51.146;17.072;2022-12-17T08:08:08;57.40;;;19.00;;
77152;SDS011;66124;51.146;17.072;2022-12-17T08:10:38;50.80;;;17.10;;
77152;SDS011;66124;51.146;17.072;2022-12-17T08:13:10;66.30;;;23.90;;
77152;SDS011;66124;51.146;17.072;2022-12-17T08:15:39;69.50;;;22.00;;
77152;SDS011;66124;51.146;17.072;2022-12-17T08:18:09;60.60;;;19.90;;
77152;SDS011;66124;51.146;17.072;2022-12-17T08:20:38;49.70;;;16.80;;
77152;SDS011;66124;51.146;17.072;2022-12-17T08:23:07;54.90;;;19.50;;
77152;SDS011;66124;51.146;17.072;2022-12-17T08:25:36;54.90;;;18.00;;
77152;SDS011;66124;51.146;17.072;2022-12-17T08:28:06;45.10;;;14.60;;
77152;SDS011;66124;51.146;17.072;2022-12-17T08:30:36;31.30;;;11.10;;
77152;SDS011;66124;51.146;17.072;2022-12-17T08:33:05;47.80;;;15.80;;
77152;SDS011;66124;51.146;17.072;2022-12-17T08:35:34;24.30;;;9.90;;
77152;SDS011;66124;51.146;17.072;2022-12-17T08:38:04;38.30;;;13.10;;
77152;SDS011;66124;51.146;17.072;2022-12-17T08:40:33;25.70;;;9.90;;
77152;SDS011;66124;51.146;17.072;2022-12-17T08:43:03;40.80;;;3.10;;
77152;SDS011;66124;51.146;17.072;2022-12-17T08:50:37;45.10;;;16.20;;
77152;SDS011;66124;51.146;17.072;2022-12-17T08:53:06;48.00;;;16.40;;
77152;SDS011;66124;51.146;17.072;2022-12-17T08:55:36;37.70;;;13.30;;
77152;SDS011;66124;51.146;17.072;2022-12-17T08:58:05;32.70;;;11.40;;
77152;SDS011;66124;51.146;17.072;2022-12-17T09:00:35;53.90;;;17.00;;
77152;SDS011;66124;51.146;17.072;2022-12-17T09:03:05;39.60;;;15.50;;
77152;SDS011;66124;51.146;17.072;2022-12-17T09:05:35;45.10;;;15.70;;
77152;SDS011;66124;51.146;17.072;2022-12-17T09:08:05;44.80;;;15.70;;
77152;SDS011;66124;51.146;17.072;2022-12-17T09:10:34;46.10;;;15.20;;
77152;SDS011;66124;51.146;17.072;2022-12-17T09:13:04;46.40;;;17.20;;
77152;SDS011;66124;51.146;17.072;2022-12-17T09:15:33;29.70;;;10.40;;
77152;SDS011;66124;51.146;17.072;2022-12-17T09:18:02;51.40;;;15.20;;
77152;SDS011;66124;51.146;17.072;2022-12-17T09:20:32;45.10;;;16.10;;
77152;SDS011;66124;51.146;17.072;2022-12-17T09:23:01;50.80;;;17.70;;
77152;SDS011;66124;51.146;17.072;2022-12-17T09:25:30;35.50;;;11.10;;
77152;SDS011;66124;51.146;17.072;2022-12-17T09:28:00;43.30;;;13.30;;
77152;SDS011;66124;51.146;17.072;2022-12-17T09:30:30;36.30;;;11.10;;
77152;SDS011;66124;51.146;17.072;2022-12-17T09:32:59;52.60;;;15.50;;
77152;SDS011;66124;51.146;17.072;2022-12-17T09:35:28;39.30;;;15.60;;
77152;SDS011;66124;51.146;17.072;2022-12-17T09:37:58;38.40;;;12.60;;
77152;SDS011;66124;51.146;17.072;2022-12-17T09:40:27;38.30;;;13.50;;
77152;SDS011;66124;51.146;17.072;2022-12-17T09:42:59;45.00;;;14.10;;
77152;SDS011;66124;51.146;17.072;2022-12-17T09:45:35;39.80;;;13.20;;
77152;SDS011;66124;51.146;17.072;2022-12-17T09:48:11;28.00;;;8.30;;
77152;SDS011;66124;51.146;17.072;2022-12-17T09:50:50;47.10;;;15.60;;
77152;SDS011;66124;51.146;17.072;2022-12-17T09:53:21;32.30;;;10.00;;
77152;SDS011;66124;51.146;17.072;2022-12-17T09:56:03;49.60;;;15.70;;
77152;SDS011;66124;51.146;17.072;2022-12-17T09:58:37;30.30;;;11.30;;
77152;SDS011;66124;51.146;17.072;2022-12-17T10:01:09;41.40;;;14.00;;
77152;SDS011;66124;51.146;17.072;2022-12-17T10:11:20;47.90;;;15.90;;
77152;SDS011;66124;51.146;17.072;2022-12-17T10:13:54;44.00;;;14.20;;
77152;SDS011;66124;51.146;17.072;2022-12-17T10:16:27;37.00;;;11.30;;
77152;SDS011;66124;51.146;17.072;2022-12-17T10:18:59;25.40;;;9.70;;
77152;SDS011;66124;51.146;17.072;2022-12-17T10:21:29;51.00;;;15.20;;
77152;SDS011;66124;51.146;17.072;2022-12-17T10:24:05;35.70;;;13.90;;
77152;SDS011;66124;51.146;17.072;2022-12-17T10:26:37;49.50;;;14.60;;
77152;SDS011;66124;51.146;17.072;2022-12-17T10:29:15;48.00;;;15.00;;
77152;SDS011;66124;51.146;17.072;2022-12-17T10:31:46;38.20;;;15.70;;
77152;SDS011;66124;51.146;17.072;2022-12-17T10:34:17;41.60;;;12.30;;
77152;SDS011;66124;51.146;17.072;2022-12-17T10:36:47;49.00;;;17.00;;
77152;SDS011;66124;51.146;17.072;2022-12-17T10:39:19;29.60;;;9.60;;
77152;SDS011;66124;51.146;17.072;2022-12-17T10:44:23;43.60;;;13.40;;
77152;SDS011;66124;51.146;17.072;2022-12-17T10:46:56;36.10;;;10.00;;
77152;SDS011;66124;51.146;17.072;2022-12-17T10:49:25;46.00;;;14.60;;
77152;SDS011;66124;51.146;17.072;2022-12-17T10:51:58;40.90;;;13.20;;
77152;SDS011;66124;51.146;17.072;2022-12-17T10:54:30;49.60;;;16.40;;
77152;SDS011;66124;51.146;17.072;2022-12-17T10:57:00;47.20;;;15.00;;
77152;SDS011;66124;51.146;17.072;2022-12-17T10:59:32;42.80;;;16.70;;
77152;SDS011;66124;51.146;17.072;2022-12-17T11:02:09;26.80;;;9.90;;
77152;SDS011;66124;51.146;17.072;2022-12-17T11:04:51;27.10;;;9.30;;
77152;SDS011;66124;51.146;17.072;2022-12-17T11:07:22;46.50;;;16.20;;
77152;SDS011;66124;51.146;17.072;2022-12-17T11:09:56;25.40;;;7.80;;
77152;SDS011;66124;51.146;17.072;2022-12-17T11:12:29;49.30;;;15.40;;
77152;SDS011;66124;51.146;17.072;2022-12-17T11:15:07;58.30;;;15.70;;
77152;SDS011;66124;51.146;17.072;2022-12-17T11:17:45;46.00;;;15.70;;
77152;SDS011;66124;51.146;17.072;2022-12-17T11:20:19;43.20;;;12.60;;
77152;SDS011;66124;51.146;17.072;2022-12-17T11:32:55;51.60;;;17.20;;
77152;SDS011;66124;51.146;17.072;2022-12-17T11:35:34;37.30;;;11.60;;
77152;SDS011;66124;51.146;17.072;2022-12-17T11:38:13;54.20;;;16.20;;
77152;SDS011;66124;51.146;17.072;2022-12-17T11:40:50;27.50;;;10.20;;
77152;SDS011;66124;51.146;17.072;2022-12-17T11:43:22;57.90;;;17.80;;
77152;SDS011;66124;51.146;17.072;2022-12-17T11:46:01;54.00;;;18.00;;
77152;SDS011;66124;51.146;17.072;2022-12-17T11:48:43;50.70;;;16.90;;
77152;SDS011;66124;51.146;17.072;2022-12-17T11:51:20;43.70;;;14.40;;
77152;SDS011;66124;51.146;17.072;2022-12-17T11:53:55;51.10;;;15.60;;
77152;SDS011;66124;51.146;17.072;2022-12-17T11:56:31;42.10;;;15.50;;
77152;SDS011;66124;51.146;17.072;2022-12-17T11:59:06;44.60;;;14.90;;
77152;SDS011;66124;51.146;17.072;2022-12-17T12:01:43;37.00;;;11.90;;
77152;SDS011;66124;51.146;17.072;2022-12-17T12:04:24;37.00;;;12.40;;
77152;SDS011;66124;51.146;17.072;2022-12-17T12:09:37;34.00;;;11.10;;
77152;SDS011;66124;51.146;17.072;2022-12-17T12:12:17;43.60;;;14.70;;
77152;SDS011;66124;51.146;17.072;2022-12-17T12:15:02;44.90;;;14.20;;
77152;SDS011;66124;51.146;17.072;2022-12-17T12:17:38;48.00;;;15.30;;
77152;SDS011;66124;51.146;17.072;2022-12-17T12:20:15;48.80;;;16.50;;
77152;SDS011;66124;51.146;17.072;2022-12-17T12:22:55;48.10;;;16.60;;
77152;SDS011;66124;51.146;17.072;2022-12-17T12:25:33;36.10;;;11.70;;
77152;SDS011;66124;51.146;17.072;2022-12-17T12:28:11;34.60;;;12.10;;
77152;SDS011;66124;51.146;17.072;2022-12-17T12:30:50;29.20;;;9.80;;
77152;SDS011;66124;51.146;17.072;2022-12-17T12:33:27;35.00;;;12.00;;
77152;SDS011;66124;51.146;17.072;2022-12-17T12:36:05;41.20;;;12.80;;
77152;SDS011;66124;51.146;17.072;2022-12-17T12:38:38;43.70;;;15.80;;
77152;SDS011;66124;51.146;17.072;2022-12-17T12:41:13;44.00;;;14.20;;
77152;SDS011;66124;51.146;17.072;2022-12-17T12:43:49;37.20;;;12.80;;
77152;SDS011;66124;51.146;17.072;2022-12-17T12:54:26;45.20;;;15.50;;
77152;SDS011;66124;51.146;17.072;2022-12-17T12:56:57;42.80;;;14.30;;
77152;SDS011;66124;51.146;17.072;2022-12-17T12:59:26;39.90;;;13.30;;
77152;SDS011;66124;51.146;17.072;2022-12-17T13:01:58;29.80;;;9.70;;
77152;SDS011;66124;51.146;17.072;2022-12-17T13:04:30;25.20;;;8.60;;
77152;SDS011;66124;51.146;17.072;2022-12-17T13:07:02;28.40;;;9.50;;
77152;SDS011;66124;51.146;17.072;2022-12-17T13:09:45;36.20;;;11.70;;
77152;SDS011;66124;51.146;17.072;2022-12-17T13:12:21;47.40;;;14.40;;
77152;SDS011;66124;51.146;17.072;2022-12-17T13:14:57;52.70;;;15.30;;
77152;SDS011;66124;51.146;17.072;2022-12-17T13:17:37;42.50;;;13.50;;
77152;SDS011;66124;51.146;17.072;2022-12-17T13:20:21;36.80;;;12.50;;
77152;SDS011;66124;51.146;17.072;2022-12-17T13:23:03;34.50;;;12.60;;
77152;SDS011;66124;51.146;17.072;2022-12-17T13:25:51;36.50;;;12.60;;
77152;SDS011;66124;51.146;17.072;2022-12-17T13:28:48;32.20;;;9.10;;
77152;SDS011;66124;51.146;17.072;2022-12-17T13:31:28;37.20;;;13.10;;
77152;SDS011;66124;51.146;17.072;2022-12-17T13:34:10;29.40;;;10.90;;
77152;SDS011;66124;51.146;17.072;2022-12-17T13:36:48;37.20;;;12.00;;
77152;SDS011;66124;51.146;17.072;2022-12-17T13:39:28;41.80;;;13.10;;
77152;SDS011;66124;51.146;17.072;2022-12-17T13:42:14;33.60;;;12.60;;
77152;SDS011;66124;51.146;17.072;2022-12-17T13:44:48;46.40;;;14.80;;
77152;SDS011;66124;51.146;17.072;2022-12-17T13:47:21;46.10;;;15.00;;
77152;SDS011;66124;51.146;17.072;2022-12-17T13:49:51;46.50;;;15.30;;
77152;SDS011;66124;51.146;17.072;2022-12-17T13:52:24;43.50;;;15.90;;
77152;SDS011;66124;51.146;17.072;2022-12-17T13:55:04;45.20;;;15.20;;
77152;SDS011;66124;51.146;17.072;2022-12-17T13:57:36;41.50;;;12.20;;
77152;SDS011;66124;51.146;17.072;2022-12-17T14:00:18;40.50;;;14.90;;
77152;SDS011;66124;51.146;17.072;2022-12-17T14:02:50;43.20;;;12.30;;
77152;SDS011;66124;51.146;17.072;2022-12-17T14:12:31;34.80;;;12.10;;
77152;SDS011;66124;51.146;17.072;2022-12-17T14:15:02;44.80;;;14.70;;
77152;SDS011;66124;51.146;17.072;2022-12-17T14:17:36;48.40;;;17.30;;
77152;SDS011;66124;51.146;17.072;2022-12-17T14:20:11;39.70;;;13.30;;
77152;SDS011;66124;51.146;17.072;2022-12-17T14:22:43;41.10;;;14.30;;
77152;SDS011;66124;51.146;17.072;2022-12-17T14:25:17;38.00;;;12.00;;
77152;SDS011;66124;51.146;17.072;2022-12-17T14:27:51;31.90;;;11.70;;
77152;SDS011;66124;51.146;17.072;2022-12-17T14:30:23;28.70;;;8.10;;
77152;SDS011;66124;51.146;17.072;2022-12-17T14:33:01;28.20;;;8.40;;
77152;SDS011;66124;51.146;17.072;2022-12-17T14:35:33;40.10;;;13.00;;
77152;SDS011;66124;51.146;17.072;2022-12-17T14:38:14;38.30;;;13.90;;
77152;SDS011;66124;51.146;17.072;2022-12-17T14:40:46;39.30;;;11.40;;
77152;SDS011;66124;51.146;17.072;2022-12-17T14:43:15;43.60;;;12.70;;
77152;SDS011;66124;51.146;17.072;2022-12-17T14:45:49;45.40;;;14.20;;
77152;SDS011;66124;51.146;17.072;2022-12-17T14:48:23;45.70;;;14.00;;
77152;SDS011;66124;51.146;17.072;2022-12-17T14:50:54;37.70;;;12.70;;
77152;SDS011;66124;51.146;17.072;2022-12-17T14:53:24;40.20;;;13.80;;
77152;SDS011;66124;51.146;17.072;2022-12-17T14:55:54;26.70;;;9.20;;
77152;SDS011;66124;51.146;17.072;2022-12-17T14:58:25;39.20;;;12.50;;
77152;SDS011;66124;51.146;17.072;2022-12-17T15:00:55;38.40;;;13.30;;
77152;SDS011;66124;51.146;17.072;2022-12-17T15:03:31;41.20;;;13.30;;
77152;SDS011;66124;51.146;17.072;2022-12-17T15:06:08;27.40;;;8.60;;
77152;SDS011;66124;51.146;17.072;2022-12-17T15:08:40;33.80;;;10.30;;
77152;SDS011;66124;51.146;17.072;2022-12-17T15:11:12;30.20;;;10.90;;
77152;SDS011;66124;51.146;17.072;2022-12-17T15:13:42;27.70;;;8.70;;
77152;SDS011;66124;51.146;17.072;2022-12-17T15:16:12;21.50;;;7.00;;
77152;SDS011;66124;51.146;17.072;2022-12-17T15:18:41;37.50;;;10.40;;
77152;SDS011;66124;51.146;17.072;2022-12-17T15:21:10;36.60;;;11.70;;
77152;SDS011;66124;51.146;17.072;2022-12-17T15:23:42;25.50;;;9.50;;
77152;SDS011;66124;51.146;17.072;2022-12-17T15:29:00;31.10;;;9.10;;
77152;SDS011;66124;51.146;17.072;2022-12-17T15:31:29;28.50;;;10.80;;
77152;SDS011;66124;51.146;17.072;2022-12-17T15:33:58;32.70;;;10.80;;
77152;SDS011;66124;51.146;17.072;2022-12-17T15:36:28;34.80;;;11.30;;
77152;SDS011;66124;51.146;17.072;2022-12-17T15:38:58;24.00;;;9.30;;
77152;SDS011;66124;51.146;17.072;2022-12-17T15:41:27;33.70;;;9.10;;
77152;SDS011;66124;51.146;17.072;2022-12-17T15:43:57;34.00;;;9.80;;
77152;SDS011;66124;51.146;17.072;2022-12-17T15:46:26;33.60;;;10.50;;
77152;SDS011;66124;51.146;17.072;2022-12-17T15:48:55;31.20;;;9.90;;
77152;SDS011;66124;51.146;17.072;2022-12-17T15:51:25;36.50;;;10.60;;
77152;SDS011;66124;51.146;17.072;2022-12-17T15:53:54;33.70;;;10.50;;
77152;SDS011;66124;51.146;17.072;2022-12-17T15:56:24;31.40;;;9.60;;
77152;SDS011;66124;51.146;17.072;2022-12-17T15:58:56;32.00;;;10.50;;
77152;SDS011;66124;51.146;17.072;2022-12-17T16:01:26;37.30;;;10.00;;
77152;SDS011;66124;51.146;17.072;2022-12-17T16:03:55;25.20;;;8.30;;
77152;SDS011;66124;51.146;17.072;2022-12-17T16:06:25;28.60;;;9.10;;